Time;durP1;ratioP1;P1;durP2;ratioP2;P2;SDS_P1;SDS_P2;PMS_P1;PMS_P2;Temp;Humidity;BMP_temperature;BMP_pressure;BME280_temperature;BME280_humidity;BME280_pressure;Samples;Min_cycle;Max_cycle;Signal;HPM_P1;HPM_P2
2024/01/31 00:01:44;;;;;;;34.47;12.90;;;-2.80;99.90;;;-5.03;100.00;102193.97;10484527;27;96775;-86
2024/01/31 00:06:51;;;;;;;39.50;15.30;;;-2.80;99.90;;;-5.08;100.00;102203.53;10498898;27;96869;-86
2024/01/31 00:11:54;;;;;;;41.73;15.03;;;-2.80;99.90;;;-5.13;100.00;102200.97;10494992;27;97045;-86
2024/01/31 00:16:58;;;;;;;48.97;16.23;;;-2.90;99.90;;;-5.20;100.00;102196.75;10489881;27;96885;-86
2024/01/31 00:22:02;;;;;;;41.37;14.60;;;-2.90;99.90;;;-5.23;100.00;102202.81;10483536;27;96715;-86
2024/01/31 00:27:05;;;;;;;44.97;17.80;;;-3.00;99.90;;;-5.29;100.00;102205.47;10502748;27;96436;-86
2024/01/31 00:32:09;;;;;;;47.87;16.00;;;-3.00;99.90;;;-5.29;100.00;102209.81;10501177;27;96664;-85
2024/01/31 00:37:12;;;;;;;42.70;16.03;;;-3.00;99.90;;;-5.32;100.00;102204.69;10500588;27;96617;-86
2024/01/31 00:42:16;;;;;;;46.13;16.20;;;-3.10;99.90;;;-5.37;100.00;102207.31;10482969;27;96571;-86
2024/01/31 00:47:20;;;;;;;35.87;13.87;;;-3.10;99.90;;;-5.37;100.00;102207.31;10500907;27;97012;-85
2024/01/31 00:52:24;;;;;;;46.57;18.50;;;-3.10;99.90;;;-5.42;100.00;102199.59;10482822;27;96688;-85
2024/01/31 00:57:27;;;;;;;39.70;16.10;;;-3.10;99.90;;;-5.43;100.00;102197.03;10490361;27;96553;-85
2024/01/31 01:02:31;;;;;;;49.53;14.83;;;-3.10;99.90;;;-5.48;100.00;102189.28;10499404;27;96850;-85
2024/01/31 01:07:39;;;;;;;37.67;14.53;;;-3.20;99.90;;;-5.50;100.00;102190.19;10484364;27;97792;-85
2024/01/31 01:12:43;;;;;;;45.27;14.73;;;-3.20;99.90;;;-5.52;100.00;102176.38;10500662;27;96586;-85
2024/01/31 01:17:46;;;;;;;44.57;15.17;;;-3.30;99.90;;;-5.55;100.00;102184.19;10466494;27;96672;-85
2024/01/31 01:22:50;;;;;;;43.50;16.37;;;-3.30;99.90;;;-5.63;100.00;102168.75;10499857;27;97319;-85
2024/01/31 01:27:53;;;;;;;39.50;12.60;;;-3.30;99.90;;;-5.60;100.00;102178.22;10499962;27;96577;-85
2024/01/31 01:32:57;;;;;;;45.17;16.37;;;-3.30;99.90;;;-5.60;100.00;102178.22;10498100;27;96504;-85
2024/01/31 01:38:00;;;;;;;41.90;16.07;;;-3.30;99.90;;;-5.62;100.00;102175.66;10483485;27;96625;-86
2024/01/31 01:43:20;;;;;;;41.43;17.13;;;-3.40;99.90;;;-5.66;100.00;102167.03;10499896;27;96586;-86
2024/01/31 01:48:24;;;;;;;36.10;15.20;;;-3.40;99.90;;;-5.67;100.00;102157.56;10489102;27;96548;-85
2024/01/31 01:53:32;;;;;;;35.77;12.20;;;-3.40;99.90;;;-5.67;100.00;102151.53;10498222;27;96467;-86
2024/01/31 01:58:37;;;;;;;39.07;12.47;;;-3.40;99.90;;;-5.67;100.00;102141.16;10514402;27;96819;-85
2024/01/31 02:03:43;;;;;;;41.57;15.73;;;-3.40;99.90;;;-5.65;100.00;102145.44;10496361;27;97017;-85
2024/01/31 02:08:48;;;;;;;42.03;15.60;;;-3.40;99.90;;;-5.66;100.00;102138.53;10489027;27;96635;-85
2024/01/31 02:13:52;;;;;;;36.13;14.40;;;-3.40;99.90;;;-5.70;100.00;102139.47;10494793;27;96489;-86
2024/01/31 02:18:55;;;;;;;37.80;14.00;;;-3.40;99.90;;;-5.73;100.00;102126.53;10505821;27;96589;-85
2024/01/31 02:23:59;;;;;;;42.90;14.40;;;-3.40;99.90;;;-5.74;100.00;102124.84;10488493;27;96503;-85
2024/01/31 02:29:03;;;;;;;46.40;15.60;;;-3.50;99.90;;;-5.74;100.00;102122.25;10489823;27;96564;-86
2024/01/31 02:34:06;;;;;;;41.10;14.23;;;-3.50;99.90;;;-5.80;100.00;102119.72;10507252;27;96618;-86
2024/01/31 02:39:09;;;;;;;34.63;14.00;;;-3.50;99.90;;;-5.85;100.00;102111.16;10507012;27;97660;-86
2024/01/31 02:44:13;;;;;;;37.83;14.83;;;-3.60;99.90;;;-5.85;100.00;102112.88;10498663;27;96620;-86
2024/01/31 02:49:16;;;;;;;40.43;14.63;;;-3.60;99.90;;;-5.92;100.00;102099.19;10497620;27;96689;-85
2024/01/31 02:54:20;;;;;;;38.43;14.07;;;-3.60;99.90;;;-5.91;100.00;102107.81;10505080;27;96461;-85
2024/01/31 02:59:23;;;;;;;32.20;14.20;;;-3.60;99.90;;;-5.93;100.00;102108.69;10504867;27;96564;-85
2024/01/31 03:04:28;;;;;;;36.00;13.47;;;-3.70;99.90;;;-5.89;100.00;102108.59;10498558;27;96486;-84
2024/01/31 03:09:31;;;;;;;35.43;13.13;;;-3.70;99.90;;;-5.87;100.00;102110.31;10503728;27;96560;-85
2024/01/31 03:14:35;;;;;;;40.00;15.07;;;-3.70;99.90;;;-5.84;100.00;102115.44;10476089;27;97686;-85
2024/01/31 03:19:40;;;;;;;33.10;13.33;;;-3.70;99.90;;;-5.84;100.00;102122.34;10486180;27;96562;-85
2024/01/31 03:24:45;;;;;;;37.10;14.63;;;-3.70;99.90;;;-5.87;100.00;102112.06;10494836;27;97067;-85
2024/01/31 03:29:48;;;;;;;39.67;14.20;;;-3.70;99.90;;;-5.88;100.00;102115.50;10503200;27;96504;-86
2024/01/31 03:34:51;;;;;;;81.00;29.53;;;-3.70;99.90;;;-5.92;100.00;102109.53;10504561;27;96491;-85
2024/01/31 03:39:55;;;;;;;44.83;17.47;;;-3.70;99.90;;;-5.95;100.00;102114.72;10485288;27;96554;-85
2024/01/31 03:44:59;;;;;;;65.27;22.83;;;-3.70;99.90;;;-5.96;100.00;102123.38;10486555;27;96539;-85
2024/01/31 03:50:04;;;;;;;43.97;17.73;;;-3.80;99.90;;;-6.00;100.00;102107.03;10527303;27;96615;-85
2024/01/31 03:55:09;;;;;;;54.10;20.20;;;-3.80;99.90;;;-6.02;100.00;102118.25;10485458;27;96640;-85
2024/01/31 04:00:13;;;;;;;47.13;18.83;;;-3.80;99.90;;;-6.11;100.00;102119.22;10499376;27;96755;-86
2024/01/31 04:05:17;;;;;;;52.10;20.80;;;-3.90;99.90;;;-6.13;100.00;102127.88;10483023;27;96448;-86
2024/01/31 04:10:21;;;;;;;52.17;20.67;;;-3.90;99.90;;;-6.16;100.00;102133.94;10484406;27;97707;-86
2024/01/31 04:15:24;;;;;;;49.77;19.27;;;-3.90;99.90;;;-6.22;100.00;102137.44;10501831;27;96596;-84
2024/01/31 04:20:28;;;;;;;44.90;18.87;;;-3.90;99.90;;;-6.25;100.00;102146.94;10494560;27;96488;-85
2024/01/31 04:25:31;;;;;;;56.13;21.27;;;-4.00;99.90;;;-6.29;100.00;102137.50;10521946;27;96480;-85
2024/01/31 04:30:35;;;;;;;51.97;20.47;;;-4.00;99.90;;;-6.32;100.00;102132.34;10473574;27;96607;-85
2024/01/31 04:35:38;;;;;;;57.10;20.93;;;-4.00;99.90;;;-6.32;100.00;102130.63;10499983;27;96565;-85
2024/01/31 04:40:42;;;;;;;54.30;19.83;;;-4.00;99.90;;;-6.34;100.00;102134.09;10510225;27;96707;-85
2024/01/31 04:45:45;;;;;;;45.37;18.60;;;-4.10;99.90;;;-6.36;100.00;102131.50;10501364;27;97846;-85
2024/01/31 04:50:50;;;;;;;51.87;19.83;;;-4.10;99.90;;;-6.42;100.00;102123.81;10500919;27;96509;-85
2024/01/31 04:55:53;;;;;;;60.73;20.13;;;-4.10;99.90;;;-6.42;100.00;102128.97;10499673;27;96837;-85
2024/01/31 05:00:58;;;;;;;40.10;15.97;;;-4.20;99.90;;;-6.45;100.00;102123.84;10499827;27;96571;-85
2024/01/31 05:06:03;;;;;;;47.40;17.57;;;-4.20;99.90;;;-6.45;100.00;102120.41;10482296;27;96550;-85
2024/01/31 05:11:06;;;;;;;41.70;16.30;;;-4.20;99.90;;;-6.44;100.00;102128.13;10500238;27;97969;-86
2024/01/31 05:16:10;;;;;;;57.13;23.07;;;-4.20;99.90;;;-6.48;100.00;102116.97;10499220;27;96928;-87
2024/01/31 05:21:14;;;;;;;47.07;18.30;;;-4.20;99.90;;;-6.48;100.00;102118.69;10510582;27;98051;-86
2024/01/31 05:26:18;;;;;;;50.40;19.43;;;-4.30;99.90;;;-6.50;100.00;102115.25;10481225;27;96622;-84
2024/01/31 05:31:21;;;;;;;50.33;18.43;;;-4.30;99.90;;;-6.52;100.00;102124.78;10484390;27;96635;-83
2024/01/31 05:36:25;;;;;;;58.13;20.37;;;-4.30;99.90;;;-6.51;100.00;102126.47;10498736;27;97544;-83
2024/01/31 05:41:28;;;;;;;53.33;20.77;;;-4.30;99.90;;;-6.50;100.00;102134.22;10498646;27;96514;-83
2024/01/31 05:46:32;;;;;;;43.83;19.67;;;-4.30;99.90;;;-6.54;100.00;102127.34;10496668;27;96538;-84
2024/01/31 05:51:35;;;;;;;46.23;18.83;;;-4.30;99.90;;;-6.58;100.00;102114.47;10499382;27;96512;-83
2024/01/31 05:56:39;;;;;;;47.00;18.70;;;-4.30;99.90;;;-6.65;100.00;102111.09;10480725;27;96511;-84
2024/01/31 06:01:43;;;;;;;44.50;17.47;;;-4.40;99.90;;;-6.65;100.00;102121.44;10480360;27;96870;-84
2024/01/31 06:06:46;;;;;;;61.10;21.63;;;-4.40;99.90;;;-6.70;100.00;102117.16;10482291;27;96928;-84
2024/01/31 06:11:50;;;;;;;50.13;19.13;;;-4.40;99.90;;;-6.68;100.00;102121.44;10497343;27;97494;-83
2024/01/31 06:16:53;;;;;;;65.60;22.40;;;-4.40;99.90;;;-6.67;100.00;102125.72;10497899;27;96713;-83
2024/01/31 06:21:57;;;;;;;45.20;19.10;;;-4.40;99.90;;;-6.67;100.00;102117.13;10499087;27;96433;-83
2024/01/31 06:27:00;;;;;;;47.60;18.83;;;-4.40;99.90;;;-6.64;100.00;102117.13;10497844;27;96736;-83
2024/01/31 06:32:05;;;;;;;61.93;24.03;;;-4.40;99.90;;;-6.59;100.00;102123.97;10497927;27;96512;-82
2024/01/31 06:37:08;;;;;;;50.70;21.13;;;-4.40;99.90;;;-6.55;100.00;102125.63;10494143;27;96554;-82
2024/01/31 06:42:12;;;;;;;58.27;22.80;;;-4.40;99.90;;;-6.49;100.00;102132.50;10493848;27;96658;-83
2024/01/31 06:47:16;;;;;;;51.30;21.73;;;-4.30;99.90;;;-6.42;100.00;102123.81;10494792;27;96884;-82
2024/01/31 06:52:20;;;;;;;61.53;24.73;;;-4.20;99.90;;;-6.32;100.00;102115.09;10494934;27;97826;-82
2024/01/31 06:57:24;;;;;;;79.90;26.90;;;-4.20;99.90;;;-6.20;100.00;102107.22;10499896;27;96987;-82
2024/01/31 07:02:28;;;;;;;73.90;28.43;;;-4.00;99.90;;;-5.94;100.00;102126.81;10479712;27;96632;-82
2024/01/31 07:07:33;;;;;;;71.10;25.60;;;-3.80;99.90;;;-5.76;100.00;102115.34;10511568;27;96704;-82
2024/01/31 07:12:36;;;;;;;64.57;27.40;;;-3.70;99.90;;;-5.51;100.00;102127.16;10514882;27;96894;-82
2024/01/31 07:17:40;;;;;;;61.50;25.17;;;-3.50;99.90;;;-4.71;100.00;102126.06;10520467;27;97706;-82
2024/01/31 07:22:44;;;;;;;74.07;28.67;;;-3.20;99.90;;;-3.69;100.00;102111.28;10502050;27;96619;-82
2024/01/31 07:27:49;;;;;;;61.60;24.47;;;-2.80;99.90;;;-2.83;100.00;102122.44;10500984;27;97718;-83
2024/01/31 07:32:53;;;;;;;59.17;24.93;;;-2.30;99.90;;;-2.12;100.00;102131.97;10496654;27;96808;-82
2024/01/31 07:37:56;;;;;;;66.20;23.27;;;-1.80;99.90;;;-1.86;100.00;102126.06;10502320;27;96719;-83
2024/01/31 07:43:00;;;;;;;58.33;23.03;;;-1.40;99.90;;;-1.84;100.00;102129.50;10501598;27;97236;-84
2024/01/31 07:48:04;;;;;;;57.67;23.50;;;-1.10;99.90;;;-1.29;100.00;102128.81;10488069;27;96650;-84
2024/01/31 07:53:07;;;;;;;191.97;49.03;;;-0.70;99.90;;;-0.65;100.00;102115.56;10516810;27;96617;-84
2024/01/31 07:58:11;;;;;;;62.87;24.43;;;-0.30;99.90;;;0.06;100.00;102114.91;10497532;27;96628;-84
2024/01/31 08:03:15;;;;;;;74.60;28.83;;;0.20;99.90;;;0.21;100.00;102108.25;10491083;27;97837;-84
2024/01/31 08:08:18;;;;;;;71.63;28.43;;;0.60;99.90;;;0.60;100.00;102112.94;10500215;27;96509;-84
2024/01/31 08:13:22;;;;;;;57.20;26.90;;;1.10;99.90;;;0.95;100.00;102108.97;10502188;27;96491;-84
2024/01/31 08:18:25;;;;;;;60.57;27.33;;;1.60;99.90;;;1.16;100.00;102102.91;10487347;27;96548;-83
2024/01/31 08:23:29;;;;;;;69.13;31.70;;;1.90;99.90;;;1.32;100.00;102085.69;10502138;27;96526;-84
2024/01/31 08:28:32;;;;;;;68.37;31.03;;;2.20;99.90;;;1.16;100.00;102089.81;10501619;27;96511;-83
2024/01/31 08:33:36;;;;;;;66.87;31.47;;;2.30;99.90;;;0.95;100.00;102090.66;10524267;27;96563;-84
2024/01/31 08:38:43;;;;;;;69.13;33.67;;;2.40;99.90;;;1.00;100.00;102083.47;10500001;27;98367;-84
2024/01/31 08:43:47;;;;;;;71.63;34.53;;;2.50;99.90;;;1.13;100.00;102089.09;10500708;27;96651;-84
2024/01/31 08:48:50;;;;;;;79.37;36.77;;;2.50;99.90;;;1.41;100.00;102078.34;10499982;27;97057;-84
2024/01/31 08:53:54;;;;;;;67.03;34.17;;;2.70;99.90;;;1.70;100.00;102064.03;10501591;27;98227;-84
2024/01/31 08:58:57;;;;;;;54.70;28.47;;;2.90;99.90;;;1.83;100.00;102066.06;10496172;27;96499;-84
2024/01/31 09:04:01;;;;;;;64.23;29.67;;;3.10;99.90;;;1.98;100.00;102058.44;10498827;27;96571;-81
2024/01/31 09:09:06;;;;;;;60.27;31.07;;;3.40;99.90;;;2.09;100.00;102066.69;10499641;27;97258;-82
2024/01/31 09:14:09;;;;;;;62.60;27.73;;;3.50;99.90;;;2.19;100.00;102070.59;10499647;27;96518;-81
2024/01/31 09:19:13;;;;;;;54.27;26.60;;;3.70;99.90;;;2.23;100.00;102068.72;10489240;27;96622;-82
2024/01/31 09:24:17;;;;;;;52.93;27.10;;;3.80;99.90;;;2.13;99.13;102073.50;10503434;27;98557;-82
2024/01/31 09:29:20;;;;;;;51.53;23.60;;;3.80;99.90;;;2.11;99.77;102075.34;10500882;27;96435;-81
2024/01/31 09:34:24;;;;;;;40.93;21.67;;;3.80;99.90;;;2.05;99.05;102075.63;10483222;27;96607;-82
2024/01/31 09:39:30;;;;;;;41.40;20.03;;;3.80;99.90;;;1.93;98.37;102063.91;10511680;27;96563;-82
2024/01/31 09:44:35;;;;;;;41.10;19.70;;;3.60;99.90;;;1.80;97.81;102054.84;10520039;27;96631;-81
2024/01/31 09:49:39;;;;;;;45.60;21.67;;;3.50;99.90;;;1.73;98.25;102046.38;10498946;27;96682;-84
2024/01/31 09:54:45;;;;;;;39.30;20.00;;;3.50;99.90;;;1.76;99.43;102035.78;10480744;27;96373;-84
2024/01/31 09:59:50;;;;;;;52.10;24.17;;;3.50;99.90;;;1.89;100.00;102038.72;10483856;27;97369;-83
2024/01/31 10:04:55;;;;;;;56.00;25.70;;;3.60;99.90;;;2.16;97.96;102028.78;10464709;27;97503;-83
2024/01/31 10:09:59;;;;;;;49.83;23.10;;;3.80;99.90;;;2.38;98.29;102015.53;10495628;27;99220;-84
2024/01/31 10:15:07;;;;;;;55.07;24.40;;;4.00;99.90;;;2.52;98.10;102012.25;10484411;27;96434;-84
2024/01/31 10:20:12;;;;;;;55.90;26.10;;;4.10;99.90;;;2.62;97.47;102022.25;10497686;27;96460;-84
2024/01/31 10:25:19;;;;;;;55.60;25.57;;;4.20;99.90;;;2.77;97.25;102006.72;10486821;27;96403;-84
2024/01/31 10:30:23;;;;;;;43.23;22.03;;;4.40;99.90;;;3.03;97.73;101995.78;10507855;27;96461;-84
2024/01/31 10:35:29;;;;;;;38.13;19.33;;;4.70;99.90;;;3.41;97.94;101990.38;10500783;27;98576;-84
2024/01/31 10:40:55;;;;;;;36.50;18.60;;;5.10;99.90;;;3.84;95.19;101980.28;10493498;27;96512;-84
2024/01/31 10:45:59;;;;;;;44.90;22.00;;;5.50;99.90;;;3.81;91.87;101976.03;10486834;27;96544;-84
2024/01/31 10:51:04;;;;;;;40.03;19.63;;;5.50;99.90;;;3.65;91.02;101960.19;10492995;27;96467;-83
2024/01/31 10:56:10;;;;;;;39.83;19.57;;;5.40;99.90;;;3.67;91.15;101965.41;10485643;27;98383;-83
2024/01/31 11:01:16;;;;;;;37.33;17.77;;;5.40;99.90;;;3.66;91.42;101950.56;10499288;27;96631;-84
2024/01/31 11:06:20;;;;;;;44.00;21.83;;;5.40;99.90;;;3.75;91.92;101952.69;10493166;27;96490;-83
2024/01/31 11:11:23;;;;;;;34.07;18.83;;;5.50;99.90;;;3.78;92.22;101944.66;10504514;27;96358;-83
2024/01/31 11:16:27;;;;;;;36.90;19.50;;;5.50;99.90;;;3.88;91.97;101942.38;10487005;27;96621;-84
2024/01/31 11:21:39;;;;;;;54.27;26.23;;;5.60;99.90;;;4.00;90.85;101945.19;10503424;27;96444;-84
2024/01/31 11:26:43;;;;;;;40.77;18.50;;;5.70;99.90;;;4.29;92.03;101940.13;10503822;27;96459;-83
2024/01/31 11:31:47;;;;;;;38.93;20.67;;;5.90;99.90;;;4.62;89.20;101928.63;10505081;27;96434;-85
2024/01/31 11:36:50;;;;;;;35.13;18.20;;;6.30;99.90;;;4.86;88.41;101921.09;10485600;27;96493;-85
2024/01/31 11:41:55;;;;;;;31.27;17.77;;;6.50;99.90;;;4.98;86.42;101918.63;10501054;27;96483;-84
2024/01/31 11:46:58;;;;;;;41.63;20.83;;;6.60;99.90;;;4.88;84.80;101922.72;10503658;27;96728;-85
2024/01/31 11:52:03;;;;;;;43.23;20.97;;;6.60;99.90;;;4.89;83.54;101908.59;10484137;27;96515;-86
2024/01/31 11:57:07;;;;;;;40.37;19.40;;;6.70;99.90;;;5.04;84.32;101906.88;10504637;27;96499;-87
2024/01/31 12:02:10;;;;;;;43.87;20.00;;;6.70;99.90;;;4.99;81.64;101895.75;10502308;27;96566;-85
2024/01/31 12:07:14;;;;;;;35.10;17.90;;;6.70;99.90;;;4.92;82.95;101895.28;10484749;27;96659;-82
2024/01/31 12:12:19;;;;;;;33.43;16.97;;;6.70;99.90;;;4.90;83.48;101878.69;10485329;27;96451;-83
2024/01/31 12:17:27;;;;;;;33.37;16.90;;;6.70;99.90;;;4.88;81.97;101875.31;10483479;27;97316;-85
2024/01/31 12:22:32;;;;;;;39.67;18.67;;;6.70;99.90;;;4.90;81.35;101864.66;10501622;27;96538;-85
2024/01/31 12:27:37;;;;;;;40.03;18.80;;;6.70;99.90;;;4.93;79.00;101857.44;10502548;27;96452;-85
2024/01/31 12:32:40;;;;;;;37.13;18.23;;;6.80;99.90;;;4.97;80.77;101856.31;10500377;27;96575;-84
2024/01/31 12:37:47;;;;;;;33.03;16.23;;;6.80;99.90;;;5.04;79.46;101855.03;10484793;27;96671;-85
2024/01/31 12:42:50;;;;;;;35.10;16.17;;;6.80;99.90;;;5.08;78.52;101839.84;10474080;27;96525;-85
2024/01/31 12:47:54;;;;;;;42.70;19.10;;;6.90;99.90;;;5.08;77.17;101845.13;10483302;27;96655;-85
2024/01/31 12:52:58;;;;;;;33.17;17.07;;;6.90;99.90;;;5.15;76.74;101845.59;10499459;27;96410;-85
2024/01/31 12:58:02;;;;;;;35.37;16.93;;;6.90;99.70;;;5.05;76.58;101838.28;10500146;27;96521;-85
2024/01/31 13:03:05;;;;;;;35.93;17.70;;;6.80;99.90;;;5.05;77.49;101846.16;10500811;27;96490;-85
2024/01/31 13:08:09;;;;;;;37.17;18.50;;;6.80;99.90;;;5.01;76.98;101826.22;10483241;27;96511;-85
2024/01/31 13:13:13;;;;;;;31.80;15.40;;;6.70;99.70;;;5.01;76.65;101839.38;10500771;27;96328;-85
2024/01/31 13:18:17;;;;;;;28.30;14.63;;;6.70;99.40;;;5.03;77.70;101819.03;10495305;27;96607;-85
2024/01/31 13:23:21;;;;;;;31.47;14.87;;;6.70;99.80;;;5.17;78.23;101812.97;10499944;27;96474;-85
2024/01/31 13:28:24;;;;;;;37.37;16.67;;;6.80;99.80;;;5.44;77.46;101810.41;10500617;27;96386;-85
2024/01/31 13:33:28;;;;;;;23.53;12.23;;;7.10;99.90;;;5.65;77.01;101802.94;10484507;27;96489;-84
2024/01/31 13:38:32;;;;;;;28.10;14.63;;;7.30;99.60;;;5.68;73.87;101802.75;10498590;27;96490;-85
2024/01/31 13:43:35;;;;;;;27.17;12.57;;;7.40;99.00;;;5.62;72.62;101803.13;10498720;27;97442;-85
2024/01/31 13:48:38;;;;;;;25.03;12.37;;;7.40;98.70;;;5.51;70.62;101801.16;10497894;27;96517;-85
2024/01/31 13:53:42;;;;;;;20.57;9.77;;;7.40;98.50;;;5.43;71.37;101798.16;10483579;27;96813;-84
2024/01/31 13:58:45;;;;;;;23.63;10.93;;;7.30;98.20;;;5.32;71.29;101804.09;10498661;27;98050;-85
2024/01/31 14:03:49;;;;;;;32.27;13.97;;;7.20;97.90;;;5.15;71.38;101795.53;10513884;27;96514;-85
2024/01/31 14:08:53;;;;;;;31.00;13.83;;;7.00;97.70;;;4.98;72.24;101797.44;10506205;27;96556;-85
2024/01/31 14:13:56;;;;;;;30.80;14.93;;;6.90;97.80;;;4.88;72.87;101787.53;10504148;27;96514;-85
2024/01/31 14:19:00;;;;;;;35.23;15.87;;;6.80;97.70;;;4.68;73.61;101778.16;10505975;27;97843;-85
2024/01/31 14:24:04;;;;;;;34.60;16.67;;;6.50;97.30;;;4.47;74.61;101788.19;10488263;27;96441;-85
2024/01/31 14:29:19;;;;;;;35.70;17.70;;;6.30;97.70;;;4.37;75.83;101797.56;10502095;27;96763;-85
2024/01/31 14:34:23;;;;;;;36.50;17.50;;;6.20;98.00;;;4.26;76.36;101790.31;10492799;27;99125;-84
2024/01/31 14:39:27;;;;;;;44.23;19.53;;;6.10;98.00;;;4.16;76.86;101787.34;10520384;27;96527;-84
2024/01/31 14:44:33;;;;;;;31.67;14.07;;;6.00;98.10;;;4.05;77.03;101794.16;10504085;27;96658;-84
2024/01/31 14:49:36;;;;;;;36.70;17.43;;;5.90;98.00;;;3.92;77.50;101786.94;10472961;27;96540;-84
2024/01/31 14:54:40;;;;;;;38.90;16.50;;;5.80;98.10;;;3.83;77.80;101790.06;10525890;27;97838;-85
2024/01/31 14:59:43;;;;;;;38.27;17.43;;;5.60;98.20;;;3.66;78.18;101787.56;10504226;27;96428;-84
2024/01/31 15:04:47;;;;;;;44.17;19.57;;;5.50;98.40;;;3.45;78.70;101782.53;10502364;27;97041;-84
2024/01/31 15:09:51;;;;;;;42.73;17.67;;;5.30;98.50;;;3.26;79.38;101781.84;10505171;27;96486;-84
2024/01/31 15:14:54;;;;;;;40.00;18.43;;;5.20;98.30;;;3.10;80.02;101783.56;10495658;27;96872;-84
2024/01/31 15:19:59;;;;;;;42.97;18.80;;;5.00;98.40;;;2.98;81.14;101781.59;10503600;27;96594;-84
2024/01/31 15:25:03;;;;;;;44.93;17.80;;;4.90;98.50;;;2.92;81.92;101785.38;10503745;27;96453;-84
2024/01/31 15:30:08;;;;;;;43.90;17.33;;;4.80;98.70;;;2.87;82.45;101787.41;10500611;27;97930;-84
2024/01/31 15:35:12;;;;;;;44.57;17.83;;;4.80;98.90;;;2.78;82.94;101788.72;10503728;27;96430;-84
2024/01/31 15:40:15;;;;;;;47.77;16.50;;;4.70;99.00;;;2.74;83.73;101776.69;10504744;27;96375;-84
2024/01/31 15:45:21;;;;;;;39.57;16.00;;;4.70;99.10;;;2.71;84.29;101781.25;10502223;27;96523;-84
2024/01/31 15:50:26;;;;;;;36.87;17.50;;;4.60;99.20;;;2.63;84.72;101798.22;10503033;27;97363;-85
2024/01/31 15:55:29;;;;;;;36.30;16.13;;;4.50;99.50;;;2.56;85.43;101796.00;10501766;27;96793;-84
2024/01/31 16:00:33;;;;;;;43.10;16.87;;;4.50;99.40;;;2.52;85.91;101791.81;10501701;27;96688;-84
2024/01/31 16:05:39;;;;;;;47.33;18.27;;;4.40;99.50;;;2.45;86.27;101788.66;10511022;27;96534;-84
2024/01/31 16:10:42;;;;;;;34.73;16.37;;;4.40;99.60;;;2.33;86.60;101786.66;10503081;27;96833;-85
2024/01/31 16:15:49;;;;;;;46.03;17.57;;;4.30;99.70;;;2.28;86.73;101789.53;10503044;27;97391;-84
2024/01/31 16:20:52;;;;;;;49.40;20.17;;;4.20;99.70;;;2.13;87.27;101791.09;10510211;27;96602;-84
2024/01/31 16:25:58;;;;;;;47.40;19.33;;;4.10;99.80;;;1.94;87.32;101778.97;10513637;27;96820;-84
2024/01/31 16:31:05;;;;;;;47.33;20.37;;;3.90;99.80;;;1.67;87.93;101792.44;10511618;27;96665;-84
2024/01/31 16:36:16;;;;;;;51.20;18.90;;;3.70;99.80;;;1.42;88.49;101802.38;10502555;27;96608;-84
2024/01/31 16:41:23;;;;;;;44.07;18.97;;;3.40;99.90;;;1.16;88.99;101800.94;10496406;27;97205;-83
2024/01/31 16:46:27;;;;;;;46.73;20.17;;;3.20;99.90;;;0.91;90.00;101801.16;10500283;27;96569;-84
2024/01/31 16:51:31;;;;;;;61.47;24.13;;;3.00;99.90;;;0.73;91.46;101810.66;10476425;27;96662;-84
2024/01/31 16:56:35;;;;;;;50.93;22.43;;;2.80;99.90;;;0.54;92.53;101807.97;10498995;27;98049;-84
2024/01/31 17:01:42;;;;;;;58.60;26.30;;;2.60;99.90;;;0.38;94.30;101806.91;10487973;27;96834;-84
2024/01/31 17:06:47;;;;;;;55.57;24.57;;;2.40;99.90;;;0.24;97.02;101803.09;10490246;27;96570;-84
2024/01/31 17:11:52;;;;;;;64.93;26.83;;;2.30;99.90;;;0.10;97.76;101794.94;10490450;27;96655;-84
2024/01/31 17:16:56;;;;;;;59.90;26.60;;;2.10;99.90;;;0.01;99.43;101804.94;10487666;27;97041;-84
2024/01/31 17:22:00;;;;;;;57.97;24.97;;;2.00;99.90;;;-0.05;100.00;101803.41;10482167;27;97163;-84
2024/01/31 17:27:05;;;;;;;57.83;25.43;;;2.00;99.90;;;-0.06;100.00;101804.31;10497515;27;97122;-84
2024/01/31 17:32:12;;;;;;;61.10;28.00;;;2.00;99.90;;;-0.05;100.00;101804.25;10486122;27;97849;-85
2024/01/31 17:37:16;;;;;;;49.03;21.67;;;2.00;99.90;;;0.04;100.00;101794.34;10502058;27;98415;-83
2024/01/31 17:42:20;;;;;;;41.17;18.40;;;2.00;99.90;;;0.08;100.00;101795.94;10511442;27;97858;-84
2024/01/31 17:47:26;;;;;;;42.87;18.67;;;2.00;99.90;;;0.07;100.00;101800.31;10511609;27;96441;-83
2024/01/31 17:52:30;;;;;;;39.73;18.23;;;2.10;99.90;;;0.05;100.00;101790.81;10506991;27;98166;-84
2024/01/31 17:57:34;;;;;;;44.73;19.43;;;2.00;99.90;;;-0.05;100.00;101798.19;10497554;27;96482;-84
2024/01/31 18:02:38;;;;;;;40.03;18.97;;;2.00;99.90;;;-0.15;100.00;101781.16;10481902;27;98270;-83
2024/01/31 18:07:43;;;;;;;47.47;20.77;;;1.90;99.90;;;-0.21;100.00;101778.78;10504411;27;97182;-83
2024/01/31 18:12:46;;;;;;;40.67;18.23;;;1.80;99.90;;;-0.32;100.00;101774.81;10524315;27;96478;-84
2024/01/31 18:17:50;;;;;;;36.63;18.30;;;1.70;99.90;;;-0.45;100.00;101763.16;10492368;27;99262;-84
2024/01/31 18:22:54;;;;;;;71.37;29.63;;;1.60;99.90;;;-0.56;100.00;101760.94;10491954;27;96584;-84
2024/01/31 18:27:58;;;;;;;78.77;27.17;;;1.50;99.90;;;-0.64;100.00;101759.56;10539202;27;96473;-84
2024/01/31 18:33:03;;;;;;;65.00;25.63;;;1.40;99.90;;;-0.70;100.00;101767.63;10473430;27;97129;-84
2024/01/31 18:38:06;;;;;;;45.63;18.40;;;1.30;99.90;;;-0.79;100.00;101757.50;10521096;27;96851;-84
2024/01/31 18:43:11;;;;;;;42.10;18.33;;;1.20;99.90;;;-0.90;100.00;101761.38;10535675;27;98430;-84
2024/01/31 18:48:14;;;;;;;40.77;17.50;;;1.20;99.90;;;-1.03;100.00;101754.88;10494192;27;97868;-84
2024/01/31 18:53:19;;;;;;;43.83;17.10;;;1.10;99.90;;;-1.14;100.00;101760.53;10491540;27;98021;-84
2024/01/31 18:58:24;;;;;;;46.90;18.47;;;0.90;99.90;;;-1.19;100.00;101738.97;10506580;27;96455;-85
2024/01/31 19:03:28;;;;;;;49.33;21.60;;;0.90;99.90;;;-1.22;100.00;101730.38;10519342;27;97863;-84
2024/01/31 19:08:32;;;;;;;53.53;22.13;;;0.80;99.90;;;-1.28;100.00;101722.78;10494717;27;97288;-84
2024/01/31 19:13:38;;;;;;;65.37;24.63;;;0.80;99.90;;;-1.32;100.00;101742.03;10515636;27;96578;-83
2024/01/31 19:18:41;;;;;;;47.87;21.50;;;0.80;99.90;;;-1.33;100.00;101740.34;10506665;27;98719;-85
2024/01/31 19:23:46;;;;;;;52.80;19.27;;;0.70;99.90;;;-1.23;100.00;101741.72;10517409;27;97169;-84
2024/01/31 19:28:52;;;;;;;56.13;19.93;;;0.80;99.90;;;-1.09;100.00;101740.31;10488420;27;98328;-83
2024/01/31 19:33:56;;;;;;;51.33;21.80;;;0.90;99.90;;;-0.95;100.00;101747.66;10518918;27;98941;-83
2024/01/31 19:39:00;;;;;;;57.67;23.30;;;1.10;99.90;;;-0.84;100.00;101732.44;10505331;27;98629;-83
2024/01/31 19:44:03;;;;;;;50.40;21.40;;;1.20;99.90;;;-0.75;100.00;101738.22;10467924;27;96805;-83
2024/01/31 19:49:07;;;;;;;61.97;21.83;;;1.20;99.90;;;-0.70;100.00;101738.91;10495501;27;97508;-84
2024/01/31 19:54:10;;;;;;;63.30;22.03;;;1.30;99.90;;;-0.64;100.00;101738.66;10513123;27;96666;-83
2024/01/31 19:59:16;;;;;;;47.83;18.33;;;1.30;99.90;;;-0.57;100.00;101745.34;10497631;27;98966;-84
2024/01/31 20:04:20;;;;;;;45.10;19.63;;;1.40;99.90;;;-0.51;100.00;101745.13;10520832;27;98573;-83
2024/01/31 20:09:23;;;;;;;48.00;20.43;;;1.50;99.90;;;-0.43;100.00;101745.66;10500892;27;97368;-83
2024/01/31 20:14:27;;;;;;;47.30;20.00;;;1.50;99.90;;;-0.41;100.00;101730.81;10519783;27;97634;-83
2024/01/31 20:19:30;;;;;;;37.57;16.50;;;1.50;99.90;;;-0.44;100.00;101703.94;10493743;27;97358;-83
2024/01/31 20:24:34;;;;;;;44.97;20.27;;;1.50;99.90;;;-0.53;100.00;101707.78;10517125;27;96832;-82
2024/01/31 20:29:38;;;;;;;51.13;20.83;;;1.40;99.90;;;-0.68;100.00;101703.13;10502315;27;98018;-83